sensor_id;sensor_type;location;lat;lon;timestamp;temperature;humidity
18189;DHT22;9219;50.396;8.546;2023-07-13T00:02:25;18.70;99.90
18189;DHT22;9219;50.396;8.546;2023-07-13T00:09:53;18.30;99.90
18189;DHT22;9219;50.396;8.546;2023-07-13T00:12:26;18.30;99.90
18189;DHT22;9219;50.396;8.546;2023-07-13T00:14:56;18.20;99.90
18189;DHT22;9219;50.396;8.546;2023-07-13T00:17:24;17.90;99.90
18189;DHT22;9219;50.396;8.546;2023-07-13T00:19:51;18.00;99.90
18189;DHT22;9219;50.396;8.546;2023-07-13T00:22:18;17.90;99.90
18189;DHT22;9219;50.396;8.546;2023-07-13T00:24:46;17.80;99.90
18189;DHT22;9219;50.396;8.546;2023-07-13T00:27:14;18.00;99.90
18189;DHT22;9219;50.396;8.546;2023-07-13T00:34:47;18.20;99.90
18189;DHT22;9219;50.396;8.546;2023-07-13T00:37:14;18.10;99.90
18189;DHT22;9219;50.396;8.546;2023-07-13T00:39:41;18.00;99.90
18189;DHT22;9219;50.396;8.546;2023-07-13T00:42:08;17.80;99.90
18189;DHT22;9219;50.396;8.546;2023-07-13T00:44:35;17.90;99.90
18189;DHT22;9219;50.396;8.546;2023-07-13T00:47:03;17.80;99.90
18189;DHT22;9219;50.396;8.546;2023-07-13T00:49:32;17.80;99.90
18189;DHT22;9219;50.396;8.546;2023-07-13T00:52:03;17.70;99.90
18189;DHT22;9219;50.396;8.546;2023-07-13T00:58:27;17.50;99.90
18189;DHT22;9219;50.396;8.546;2023-07-13T01:00:55;17.50;99.90
18189;DHT22;9219;50.396;8.546;2023-07-13T01:03:22;17.60;99.90
18189;DHT22;9219;50.396;8.546;2023-07-13T01:05:50;17.80;99.90
18189;DHT22;9219;50.396;8.546;2023-07-13T01:08:17;17.80;99.90
18189;DHT22;9219;50.396;8.546;2023-07-13T01:10:51;17.80;99.90
18189;DHT22;9219;50.396;8.546;2023-07-13T01:13:19;18.00;99.90
18189;DHT22;9219;50.396;8.546;2023-07-13T01:20:53;18.10;99.90
18189;DHT22;9219;50.396;8.546;2023-07-13T01:23:22;17.50;99.90
18189;DHT22;9219;50.396;8.546;2023-07-13T01:25:51;17.20;99.90
18189;DHT22;9219;50.396;8.546;2023-07-13T01:28:18;17.40;99.90
18189;DHT22;9219;50.396;8.546;2023-07-13T01:30:47;17.50;99.90
18189;DHT22;9219;50.396;8.546;2023-07-13T01:33:16;17.50;99.90
18189;DHT22;9219;50.396;8.546;2023-07-13T01:35:45;17.50;99.90
18189;DHT22;9219;50.396;8.546;2023-07-13T01:38:15;17.40;99.90
18189;DHT22;9219;50.396;8.546;2023-07-13T01:45:47;17.00;99.90
18189;DHT22;9219;50.396;8.546;2023-07-13T01:48:15;16.60;99.90
18189;DHT22;9219;50.396;8.546;2023-07-13T01:50:42;16.50;99.90
18189;DHT22;9219;50.396;8.546;2023-07-13T01:53:09;16.40;99.90
18189;DHT22;9219;50.396;8.546;2023-07-13T01:55:37;16.40;99.90
18189;DHT22;9219;50.396;8.546;2023-07-13T01:58:04;16.30;99.90
18189;DHT22;9219;50.396;8.546;2023-07-13T02:00:31;16.40;99.90
18189;DHT22;9219;50.396;8.546;2023-07-13T02:05:45;16.40;99.90
18189;DHT22;9219;50.396;8.546;2023-07-13T02:08:12;16.50;99.90
18189;DHT22;9219;50.396;8.546;2023-07-13T02:10:40;16.50;99.90
18189;DHT22;9219;50.396;8.546;2023-07-13T02:13:07;16.50;99.90
18189;DHT22;9219;50.396;8.546;2023-07-13T02:15:38;16.40;99.90
18189;DHT22;9219;50.396;8.546;2023-07-13T02:18:05;16.40;99.90
18189;DHT22;9219;50.396;8.546;2023-07-13T02:20:33;16.30;99.90
18189;DHT22;9219;50.396;8.546;2023-07-13T02:26:41;16.20;99.90
18189;DHT22;9219;50.396;8.546;2023-07-13T02:29:08;16.00;99.90
18189;DHT22;9219;50.396;8.546;2023-07-13T02:31:36;16.00;99.90
18189;DHT22;9219;50.396;8.546;2023-07-13T02:34:04;16.00;99.90
18189;DHT22;9219;50.396;8.546;2023-07-13T02:36:32;15.80;99.90
18189;DHT22;9219;50.396;8.546;2023-07-13T02:39:02;15.90;99.90
18189;DHT22;9219;50.396;8.546;2023-07-13T02:41:31;15.90;99.90
18189;DHT22;9219;50.396;8.546;2023-07-13T02:50:53;15.90;99.90
18189;DHT22;9219;50.396;8.546;2023-07-13T02:53:20;15.90;99.90
18189;DHT22;9219;50.396;8.546;2023-07-13T02:55:48;15.90;99.90
18189;DHT22;9219;50.396;8.546;2023-07-13T02:58:15;15.80;99.90
18189;DHT22;9219;50.396;8.546;2023-07-13T03:00:43;15.70;99.90
18189;DHT22;9219;50.396;8.546;2023-07-13T03:03:10;15.70;99.90
18189;DHT22;9219;50.396;8.546;2023-07-13T03:05:37;15.90;99.90
18189;DHT22;9219;50.396;8.546;2023-07-13T03:11:21;16.00;99.90
18189;DHT22;9219;50.396;8.546;2023-07-13T03:13:48;16.10;99.90
18189;DHT22;9219;50.396;8.546;2023-07-13T03:16:16;16.10;99.90
18189;DHT22;9219;50.396;8.546;2023-07-13T03:18:46;16.30;99.90
18189;DHT22;9219;50.396;8.546;2023-07-13T03:21:13;16.50;99.90
18189;DHT22;9219;50.396;8.546;2023-07-13T03:23:41;16.50;99.90
18189;DHT22;9219;50.396;8.546;2023-07-13T03:26:10;16.30;99.90
18189;DHT22;9219;50.396;8.546;2023-07-13T03:32:35;16.30;99.90
18189;DHT22;9219;50.396;8.546;2023-07-13T03:35:02;15.90;99.90
18189;DHT22;9219;50.396;8.546;2023-07-13T03:37:30;15.90;99.90
18189;DHT22;9219;50.396;8.546;2023-07-13T03:39:57;15.90;99.90
18189;DHT22;9219;50.396;8.546;2023-07-13T03:42:24;16.10;99.90
18189;DHT22;9219;50.396;8.546;2023-07-13T03:44:52;16.00;99.90
18189;DHT22;9219;50.396;8.546;2023-07-13T03:47:19;15.90;99.90
18189;DHT22;9219;50.396;8.546;2023-07-13T03:54:46;15.90;99.90
18189;DHT22;9219;50.396;8.546;2023-07-13T03:57:13;15.90;99.90
18189;DHT22;9219;50.396;8.546;2023-07-13T03:59:41;15.80;99.90
18189;DHT22;9219;50.396;8.546;2023-07-13T04:02:09;15.80;99.90
18189;DHT22;9219;50.396;8.546;2023-07-13T04:04:36;15.90;99.90
18189;DHT22;9219;50.396;8.546;2023-07-13T04:07:07;15.90;99.90
18189;DHT22;9219;50.396;8.546;2023-07-13T04:09:34;16.00;99.90
18189;DHT22;9219;50.396;8.546;2023-07-13T04:12:03;15.90;99.90
18189;DHT22;9219;50.396;8.546;2023-07-13T04:16:00;16.00;99.90
18189;DHT22;9219;50.396;8.546;2023-07-13T04:18:27;15.80;99.90
18189;DHT22;9219;50.396;8.546;2023-07-13T04:20:54;15.80;99.90
18189;DHT22;9219;50.396;8.546;2023-07-13T04:23:22;15.90;99.90
18189;DHT22;9219;50.396;8.546;2023-07-13T04:25:52;15.90;99.90
18189;DHT22;9219;50.396;8.546;2023-07-13T04:28:20;15.90;99.90
18189;DHT22;9219;50.396;8.546;2023-07-13T04:30:48;15.80;99.90
18189;DHT22;9219;50.396;8.546;2023-07-13T04:39:39;16.10;99.90
18189;DHT22;9219;50.396;8.546;2023-07-13T04:42:06;15.90;99.90
18189;DHT22;9219;50.396;8.546;2023-07-13T04:44:33;16.10;99.90
18189;DHT22;9219;50.396;8.546;2023-07-13T04:47:01;16.10;99.90
18189;DHT22;9219;50.396;8.546;2023-07-13T04:49:29;16.20;99.90
18189;DHT22;9219;50.396;8.546;2023-07-13T04:51:57;16.10;99.90
18189;DHT22;9219;50.396;8.546;2023-07-13T04:54:24;16.00;99.90
18189;DHT22;9219;50.396;8.546;2023-07-13T04:56:53;15.90;99.90
18189;DHT22;9219;50.396;8.546;2023-07-13T05:04:24;16.20;99.90
18189;DHT22;9219;50.396;8.546;2023-07-13T05:06:52;16.20;99.90
18189;DHT22;9219;50.396;8.546;2023-07-13T05:09:19;16.30;99.90
18189;DHT22;9219;50.396;8.546;2023-07-13T05:11:46;16.40;99.90
18189;DHT22;9219;50.396;8.546;2023-07-13T05:14:17;16.60;99.90
18189;DHT22;9219;50.396;8.546;2023-07-13T05:16:44;16.50;99.90
18189;DHT22;9219;50.396;8.546;2023-07-13T05:19:12;16.50;99.90
18189;DHT22;9219;50.396;8.546;2023-07-13T05:26:42;16.50;99.90
18189;DHT22;9219;50.396;8.546;2023-07-13T05:29:10;16.90;99.90
18189;DHT22;9219;50.396;8.546;2023-07-13T05:31:37;17.10;99.90
18189;DHT22;9219;50.396;8.546;2023-07-13T05:34:07;17.10;99.90
18189;DHT22;9219;50.396;8.546;2023-07-13T05:36:34;17.00;99.90
18189;DHT22;9219;50.396;8.546;2023-07-13T05:39:03;17.10;99.90
18189;DHT22;9219;50.396;8.546;2023-07-13T05:41:30;17.40;99.90
18189;DHT22;9219;50.396;8.546;2023-07-13T05:43:58;17.20;99.90
18189;DHT22;9219;50.396;8.546;2023-07-13T05:51:45;17.30;99.90
18189;DHT22;9219;50.396;8.546;2023-07-13T05:54:13;17.20;99.90
18189;DHT22;9219;50.396;8.546;2023-07-13T05:56:40;17.00;99.90
18189;DHT22;9219;50.396;8.546;2023-07-13T05:59:07;17.00;99.90
18189;DHT22;9219;50.396;8.546;2023-07-13T06:01:34;17.00;99.90
18189;DHT22;9219;50.396;8.546;2023-07-13T06:04:04;17.00;99.90
18189;DHT22;9219;50.396;8.546;2023-07-13T06:06:32;17.10;99.90
18189;DHT22;9219;50.396;8.546;2023-07-13T06:15:57;17.20;99.90
18189;DHT22;9219;50.396;8.546;2023-07-13T06:18:25;17.10;99.90
18189;DHT22;9219;50.396;8.546;2023-07-13T06:20:52;17.00;99.90
18189;DHT22;9219;50.396;8.546;2023-07-13T06:23:19;16.90;99.90
18189;DHT22;9219;50.396;8.546;2023-07-13T06:25:46;16.80;99.90
18189;DHT22;9219;50.396;8.546;2023-07-13T06:28:16;17.10;99.90
18189;DHT22;9219;50.396;8.546;2023-07-13T06:30:43;17.20;99.90
18189;DHT22;9219;50.396;8.546;2023-07-13T06:33:12;17.00;99.90
18189;DHT22;9219;50.396;8.546;2023-07-13T06:40:44;17.80;99.90
18189;DHT22;9219;50.396;8.546;2023-07-13T06:43:11;17.60;99.90
18189;DHT22;9219;50.396;8.546;2023-07-13T06:45:41;17.40;99.90
18189;DHT22;9219;50.396;8.546;2023-07-13T06:48:08;17.40;99.90
18189;DHT22;9219;50.396;8.546;2023-07-13T06:50:36;17.40;99.90
18189;DHT22;9219;50.396;8.546;2023-07-13T06:53:04;17.20;99.90
18189;DHT22;9219;50.396;8.546;2023-07-13T06:55:31;17.10;99.90
18189;DHT22;9219;50.396;8.546;2023-07-13T07:01:55;17.50;99.90
18189;DHT22;9219;50.396;8.546;2023-07-13T07:04:22;17.50;99.90
18189;DHT22;9219;50.396;8.546;2023-07-13T07:06:50;17.40;99.90
18189;DHT22;9219;50.396;8.546;2023-07-13T07:09:17;17.60;99.90
18189;DHT22;9219;50.396;8.546;2023-07-13T07:11:44;17.50;99.90
18189;DHT22;9219;50.396;8.546;2023-07-13T07:14:29;17.70;99.90
18189;DHT22;9219;50.396;8.546;2023-07-13T07:16:57;17.50;99.90
18189;DHT22;9219;50.396;8.546;2023-07-13T07:22:04;17.50;99.90
18189;DHT22;9219;50.396;8.546;2023-07-13T07:24:31;17.40;99.90
18189;DHT22;9219;50.396;8.546;2023-07-13T07:26:58;17.30;99.90
18189;DHT22;9219;50.396;8.546;2023-07-13T07:29:28;17.40;99.90
18189;DHT22;9219;50.396;8.546;2023-07-13T07:32:07;17.60;99.90
18189;DHT22;9219;50.396;8.546;2023-07-13T07:35:16;17.90;99.90
18189;DHT22;9219;50.396;8.546;2023-07-13T07:37:44;18.00;99.90
18189;DHT22;9219;50.396;8.546;2023-07-13T07:43:00;18.50;99.90
18189;DHT22;9219;50.396;8.546;2023-07-13T07:45:27;17.90;99.90
18189;DHT22;9219;50.396;8.546;2023-07-13T07:47:55;18.00;99.90
18189;DHT22;9219;50.396;8.546;2023-07-13T07:50:25;18.50;99.90
18189;DHT22;9219;50.396;8.546;2023-07-13T07:52:52;18.60;99.90
18189;DHT22;9219;50.396;8.546;2023-07-13T07:55:22;18.90;99.90
18189;DHT22;9219;50.396;8.546;2023-07-13T07:57:53;18.50;99.90
18189;DHT22;9219;50.396;8.546;2023-07-13T08:03:57;18.40;99.90
18189;DHT22;9219;50.396;8.546;2023-07-13T08:06:27;18.70;99.90
18189;DHT22;9219;50.396;8.546;2023-07-13T08:09:14;18.80;99.90
18189;DHT22;9219;50.396;8.546;2023-07-13T08:11:41;18.90;99.90
18189;DHT22;9219;50.396;8.546;2023-07-13T08:14:12;19.10;99.90
18189;DHT22;9219;50.396;8.546;2023-07-13T08:16:40;19.30;99.90
18189;DHT22;9219;50.396;8.546;2023-07-13T08:19:08;19.00;99.90
18189;DHT22;9219;50.396;8.546;2023-07-13T08:21:37;18.70;99.90
18189;DHT22;9219;50.396;8.546;2023-07-13T08:29:20;19.00;99.90
18189;DHT22;9219;50.396;8.546;2023-07-13T08:31:49;19.20;99.90
18189;DHT22;9219;50.396;8.546;2023-07-13T08:34:16;19.40;99.90
18189;DHT22;9219;50.396;8.546;2023-07-13T08:36:44;19.30;99.90
18189;DHT22;9219;50.396;8.546;2023-07-13T08:39:12;19.40;99.90
18189;DHT22;9219;50.396;8.546;2023-07-13T08:41:39;19.20;99.90
18189;DHT22;9219;50.396;8.546;2023-07-13T08:44:18;19.20;99.90
18189;DHT22;9219;50.396;8.546;2023-07-13T08:46:49;19.30;99.90
18189;DHT22;9219;50.396;8.546;2023-07-13T08:53:09;19.40;99.90
18189;DHT22;9219;50.396;8.546;2023-07-13T08:55:38;19.30;99.90
18189;DHT22;9219;50.396;8.546;2023-07-13T08:58:09;19.60;99.90
18189;DHT22;9219;50.396;8.546;2023-07-13T09:00:44;19.80;99.90
18189;DHT22;9219;50.396;8.546;2023-07-13T09:03:20;20.10;99.90
18189;DHT22;9219;50.396;8.546;2023-07-13T09:05:52;20.70;99.90
18189;DHT22;9219;50.396;8.546;2023-07-13T09:08:41;21.10;99.90
18189;DHT22;9219;50.396;8.546;2023-07-13T09:16:18;21.30;99.90
18189;DHT22;9219;50.396;8.546;2023-07-13T09:18:48;20.40;99.90
18189;DHT22;9219;50.396;8.546;2023-07-13T09:21:20;20.10;99.90
18189;DHT22;9219;50.396;8.546;2023-07-13T09:24:13;20.60;99.90
18189;DHT22;9219;50.396;8.546;2023-07-13T09:26:45;21.10;99.90
18189;DHT22;9219;50.396;8.546;2023-07-13T09:29:18;21.70;99.90
18189;DHT22;9219;50.396;8.546;2023-07-13T09:31:53;21.60;99.90
18189;DHT22;9219;50.396;8.546;2023-07-13T09:39:29;22.20;99.90
18189;DHT22;9219;50.396;8.546;2023-07-13T09:42:01;21.90;99.90
18189;DHT22;9219;50.396;8.546;2023-07-13T09:44:35;21.90;99.90
18189;DHT22;9219;50.396;8.546;2023-07-13T09:47:13;22.20;99.90
18189;DHT22;9219;50.396;8.546;2023-07-13T09:49:55;22.60;99.90
18189;DHT22;9219;50.396;8.546;2023-07-13T09:52:52;22.70;99.90
18189;DHT22;9219;50.396;8.546;2023-07-13T09:55:30;23.10;99.90
18189;DHT22;9219;50.396;8.546;2023-07-13T10:04:58;23.00;99.90
18189;DHT22;9219;50.396;8.546;2023-07-13T10:07:25;22.20;99.90
18189;DHT22;9219;50.396;8.546;2023-07-13T10:09:57;22.50;99.90
18189;DHT22;9219;50.396;8.546;2023-07-13T10:12:25;23.20;99.90
18189;DHT22;9219;50.396;8.546;2023-07-13T10:14:55;23.10;99.90
18189;DHT22;9219;50.396;8.546;2023-07-13T10:17:44;22.70;99.90
18189;DHT22;9219;50.396;8.546;2023-07-13T10:20:15;23.10;99.90
18189;DHT22;9219;50.396;8.546;2023-07-13T10:27:50;23.50;99.90
18189;DHT22;9219;50.396;8.546;2023-07-13T10:30:21;23.60;99.90
18189;DHT22;9219;50.396;8.546;2023-07-13T10:32:52;23.50;99.90
18189;DHT22;9219;50.396;8.546;2023-07-13T10:35:21;23.50;99.90
18189;DHT22;9219;50.396;8.546;2023-07-13T10:37:52;23.40;99.90
18189;DHT22;9219;50.396;8.546;2023-07-13T10:40:27;23.20;99.90
18189;DHT22;9219;50.396;8.546;2023-07-13T10:42:59;22.70;99.90
18189;DHT22;9219;50.396;8.546;2023-07-13T10:49:02;22.30;99.90
18189;DHT22;9219;50.396;8.546;2023-07-13T10:51:34;22.40;99.90
18189;DHT22;9219;50.396;8.546;2023-07-13T10:54:16;22.50;99.90
18189;DHT22;9219;50.396;8.546;2023-07-13T10:56:48;23.00;99.90
18189;DHT22;9219;50.396;8.546;2023-07-13T10:59:20;22.70;99.90
18189;DHT22;9219;50.396;8.546;2023-07-13T11:01:56;22.80;99.90
18189;DHT22;9219;50.396;8.546;2023-07-13T11:04:27;22.70;99.90
18189;DHT22;9219;50.396;8.546;2023-07-13T11:12:06;22.90;99.90
18189;DHT22;9219;50.396;8.546;2023-07-13T11:14:36;23.80;99.90
18189;DHT22;9219;50.396;8.546;2023-07-13T11:17:29;24.00;99.90
18189;DHT22;9219;50.396;8.546;2023-07-13T11:20:24;23.20;99.90
18189;DHT22;9219;50.396;8.546;2023-07-13T11:23:19;23.70;99.90
18189;DHT22;9219;50.396;8.546;2023-07-13T11:25:48;24.40;99.90
18189;DHT22;9219;50.396;8.546;2023-07-13T11:28:23;24.50;99.90
18189;DHT22;9219;50.396;8.546;2023-07-13T11:36:15;22.80;99.90
18189;DHT22;9219;50.396;8.546;2023-07-13T11:39:00;22.90;99.90
18189;DHT22;9219;50.396;8.546;2023-07-13T11:41:37;22.50;99.90
18189;DHT22;9219;50.396;8.546;2023-07-13T11:44:29;22.10;99.90
18189;DHT22;9219;50.396;8.546;2023-07-13T11:47:01;22.20;99.90
18189;DHT22;9219;50.396;8.546;2023-07-13T11:49:42;22.70;99.90
18189;DHT22;9219;50.396;8.546;2023-07-13T12:00:42;23.60;99.90
18189;DHT22;9219;50.396;8.546;2023-07-13T12:03:11;23.20;99.90
18189;DHT22;9219;50.396;8.546;2023-07-13T12:05:59;23.00;99.90
18189;DHT22;9219;50.396;8.546;2023-07-13T12:08:50;23.10;99.90
18189;DHT22;9219;50.396;8.546;2023-07-13T12:11:29;22.80;99.90
18189;DHT22;9219;50.396;8.546;2023-07-13T12:13:56;23.00;99.90
18189;DHT22;9219;50.396;8.546;2023-07-13T12:16:29;23.40;99.90
18189;DHT22;9219;50.396;8.546;2023-07-13T12:26:10;22.90;99.90
18189;DHT22;9219;50.396;8.546;2023-07-13T12:28:44;22.60;99.90
18189;DHT22;9219;50.396;8.546;2023-07-13T12:31:29;22.50;99.90
18189;DHT22;9219;50.396;8.546;2023-07-13T12:34:20;22.40;99.90
18189;DHT22;9219;50.396;8.546;2023-07-13T12:36:51;22.30;99.90
18189;DHT22;9219;50.396;8.546;2023-07-13T12:39:21;22.20;99.90
18189;DHT22;9219;50.396;8.546;2023-07-13T12:41:51;22.50;99.90
18189;DHT22;9219;50.396;8.546;2023-07-13T12:51:22;23.20;99.90
18189;DHT22;9219;50.396;8.546;2023-07-13T12:54:06;23.70;99.90
18189;DHT22;9219;50.396;8.546;2023-07-13T12:56:33;23.60;99.90
18189;DHT22;9219;50.396;8.546;2023-07-13T12:59:20;23.90;99.90
18189;DHT22;9219;50.396;8.546;2023-07-13T13:01:50;23.50;99.90
18189;DHT22;9219;50.396;8.546;2023-07-13T13:04:18;24.10;99.90
18189;DHT22;9219;50.396;8.546;2023-07-13T13:06:49;24.50;99.90
18189;DHT22;9219;50.396;8.546;2023-07-13T13:13:02;24.10;99.90
18189;DHT22;9219;50.396;8.546;2023-07-13T13:15:30;23.60;99.90
18189;DHT22;9219;50.396;8.546;2023-07-13T13:18:15;23.20;99.90
18189;DHT22;9219;50.396;8.546;2023-07-13T13:20:43;22.80;99.90
18189;DHT22;9219;50.396;8.546;2023-07-13T13:23:12;22.60;99.90
18189;DHT22;9219;50.396;8.546;2023-07-13T13:25:39;22.40;99.90
18189;DHT22;9219;50.396;8.546;2023-07-13T13:28:14;22.30;99.90
18189;DHT22;9219;50.396;8.546;2023-07-13T13:33:30;22.00;99.90
18189;DHT22;9219;50.396;8.546;2023-07-13T13:35:58;21.90;99.90
18189;DHT22;9219;50.396;8.546;2023-07-13T13:38:27;21.70;99.90
18189;DHT22;9219;50.396;8.546;2023-07-13T13:40:54;21.70;99.90
18189;DHT22;9219;50.396;8.546;2023-07-13T13:43:24;21.70;99.90
18189;DHT22;9219;50.396;8.546;2023-07-13T13:46:00;21.80;99.90
18189;DHT22;9219;50.396;8.546;2023-07-13T13:48:32;21.80;99.90
18189;DHT22;9219;50.396;8.546;2023-07-13T13:54:18;21.90;99.90
18189;DHT22;9219;50.396;8.546;2023-07-13T13:56:50;21.50;99.90
18189;DHT22;9219;50.396;8.546;2023-07-13T13:59:18;21.50;99.90
18189;DHT22;9219;50.396;8.546;2023-07-13T14:01:47;21.80;99.90
18189;DHT22;9219;50.396;8.546;2023-07-13T14:04:25;22.30;99.90
18189;DHT22;9219;50.396;8.546;2023-07-13T14:06:53;22.20;99.90
18189;DHT22;9219;50.396;8.546;2023-07-13T14:09:21;21.80;99.90
18189;DHT22;9219;50.396;8.546;2023-07-13T14:16:55;21.60;99.90
18189;DHT22;9219;50.396;8.546;2023-07-13T14:19:39;22.20;99.90
18189;DHT22;9219;50.396;8.546;2023-07-13T14:22:29;22.40;99.90
18189;DHT22;9219;50.396;8.546;2023-07-13T14:25:14;22.30;99.90
18189;DHT22;9219;50.396;8.546;2023-07-13T14:27:43;22.40;99.90
18189;DHT22;9219;50.396;8.546;2023-07-13T14:30:13;22.60;99.90
18189;DHT22;9219;50.396;8.546;2023-07-13T14:32:58;22.60;99.90
18189;DHT22;9219;50.396;8.546;2023-07-13T14:40:32;22.80;99.90
18189;DHT22;9219;50.396;8.546;2023-07-13T14:42:59;21.80;99.90
18189;DHT22;9219;50.396;8.546;2023-07-13T14:45:28;21.60;99.90
18189;DHT22;9219;50.396;8.546;2023-07-13T14:47:57;21.60;99.90
18189;DHT22;9219;50.396;8.546;2023-07-13T14:50:29;21.70;99.90
18189;DHT22;9219;50.396;8.546;2023-07-13T14:52:57;21.50;99.90
18189;DHT22;9219;50.396;8.546;2023-07-13T14:55:25;21.90;99.90
18189;DHT22;9219;50.396;8.546;2023-07-13T15:01:44;22.20;99.90
18189;DHT22;9219;50.396;8.546;2023-07-13T15:04:12;22.30;99.90
18189;DHT22;9219;50.396;8.546;2023-07-13T15:06:58;22.30;99.90
18189;DHT22;9219;50.396;8.546;2023-07-13T15:09:44;22.40;99.90
18189;DHT22;9219;50.396;8.546;2023-07-13T15:12:12;22.20;99.90
18189;DHT22;9219;50.396;8.546;2023-07-13T15:14:39;22.40;99.90
18189;DHT22;9219;50.396;8.546;2023-07-13T15:17:30;22.10;99.90
18189;DHT22;9219;50.396;8.546;2023-07-13T15:25:14;22.40;99.90
18189;DHT22;9219;50.396;8.546;2023-07-13T15:27:42;23.50;99.90
18189;DHT22;9219;50.396;8.546;2023-07-13T15:30:11;23.40;99.90
18189;DHT22;9219;50.396;8.546;2023-07-13T15:32:42;22.80;99.90
18189;DHT22;9219;50.396;8.546;2023-07-13T15:35:18;22.70;99.90
18189;DHT22;9219;50.396;8.546;2023-07-13T15:37:47;22.70;99.90
18189;DHT22;9219;50.396;8.546;2023-07-13T15:40:17;22.70;99.90
18189;DHT22;9219;50.396;8.546;2023-07-13T15:47:55;23.10;99.90
18189;DHT22;9219;50.396;8.546;2023-07-13T15:50:24;22.80;99.90
18189;DHT22;9219;50.396;8.546;2023-07-13T15:52:54;22.70;99.90
18189;DHT22;9219;50.396;8.546;2023-07-13T15:55:24;23.00;99.90
18189;DHT22;9219;50.396;8.546;2023-07-13T15:57:54;23.00;99.90
18189;DHT22;9219;50.396;8.546;2023-07-13T16:00:27;23.00;99.90
18189;DHT22;9219;50.396;8.546;2023-07-13T16:02:56;22.70;99.90
18189;DHT22;9219;50.396;8.546;2023-07-13T16:05:23;23.10;99.90
18189;DHT22;9219;50.396;8.546;2023-07-13T16:12:56;23.10;99.90
18189;DHT22;9219;50.396;8.546;2023-07-13T16:15:24;23.20;99.90
18189;DHT22;9219;50.396;8.546;2023-07-13T16:17:51;23.60;99.90
18189;DHT22;9219;50.396;8.546;2023-07-13T16:20:18;23.70;99.90
18189;DHT22;9219;50.396;8.546;2023-07-13T16:22:49;23.70;99.90
18189;DHT22;9219;50.396;8.546;2023-07-13T16:25:20;23.60;99.90
18189;DHT22;9219;50.396;8.546;2023-07-13T16:27:51;23.30;99.90
18189;DHT22;9219;50.396;8.546;2023-07-13T16:35:27;23.90;99.90
18189;DHT22;9219;50.396;8.546;2023-07-13T16:37:56;23.50;99.90
18189;DHT22;9219;50.396;8.546;2023-07-13T16:40:31;23.40;99.90
18189;DHT22;9219;50.396;8.546;2023-07-13T16:43:00;23.00;99.90
18189;DHT22;9219;50.396;8.546;2023-07-13T16:45:32;22.80;99.90
18189;DHT22;9219;50.396;8.546;2023-07-13T16:48:05;23.00;99.90
18189;DHT22;9219;50.396;8.546;2023-07-13T16:50:38;23.00;99.90
18189;DHT22;9219;50.396;8.546;2023-07-13T16:55:53;23.20;99.90
18189;DHT22;9219;50.396;8.546;2023-07-13T16:58:23;23.20;99.90
18189;DHT22;9219;50.396;8.546;2023-07-13T17:00:52;23.30;99.90
18189;DHT22;9219;50.396;8.546;2023-07-13T17:03:20;23.10;99.90
18189;DHT22;9219;50.396;8.546;2023-07-13T17:05:48;22.90;99.90
18189;DHT22;9219;50.396;8.546;2023-07-13T17:08:17;23.00;99.90
18189;DHT22;9219;50.396;8.546;2023-07-13T17:10:47;23.20;99.90
18189;DHT22;9219;50.396;8.546;2023-07-13T17:16:34;23.30;99.90
18189;DHT22;9219;50.396;8.546;2023-07-13T17:19:01;23.40;99.90
18189;DHT22;9219;50.396;8.546;2023-07-13T17:21:29;23.60;99.90
18189;DHT22;9219;50.396;8.546;2023-07-13T17:23:57;23.80;99.90
18189;DHT22;9219;50.396;8.546;2023-07-13T17:26:25;23.70;99.90
18189;DHT22;9219;50.396;8.546;2023-07-13T17:28:52;23.40;99.90
18189;DHT22;9219;50.396;8.546;2023-07-13T17:31:20;23.40;99.90
18189;DHT22;9219;50.396;8.546;2023-07-13T17:37:17;23.50;99.90
18189;DHT22;9219;50.396;8.546;2023-07-13T17:39:45;23.70;99.90
18189;DHT22;9219;50.396;8.546;2023-07-13T17:42:14;23.70;99.90
18189;DHT22;9219;50.396;8.546;2023-07-13T17:44:42;23.70;99.90
18189;DHT22;9219;50.396;8.546;2023-07-13T17:47:21;23.70;99.90
18189;DHT22;9219;50.396;8.546;2023-07-13T17:49:50;23.80;99.90
18189;DHT22;9219;50.396;8.546;2023-07-13T17:52:18;23.50;99.90
18189;DHT22;9219;50.396;8.546;2023-07-13T17:59:50;22.70;99.90
18189;DHT22;9219;50.396;8.546;2023-07-13T18:02:20;22.40;99.90
18189;DHT22;9219;50.396;8.546;2023-07-13T18:04:49;22.70;99.90
18189;DHT22;9219;50.396;8.546;2023-07-13T18:07:18;22.80;99.90
18189;DHT22;9219;50.396;8.546;2023-07-13T18:09:48;22.20;99.90
18189;DHT22;9219;50.396;8.546;2023-07-13T18:12:19;22.00;99.90
18189;DHT22;9219;50.396;8.546;2023-07-13T18:14:47;22.10;99.90
18189;DHT22;9219;50.396;8.546;2023-07-13T18:19:55;22.30;99.90
18189;DHT22;9219;50.396;8.546;2023-07-13T18:22:23;22.80;99.90
18189;DHT22;9219;50.396;8.546;2023-07-13T18:24:50;22.50;99.90
18189;DHT22;9219;50.396;8.546;2023-07-13T18:27:19;22.00;99.90
18189;DHT22;9219;50.396;8.546;2023-07-13T18:29:47;22.10;99.90
18189;DHT22;9219;50.396;8.546;2023-07-13T18:32:17;22.10;99.90
18189;DHT22;9219;50.396;8.546;2023-07-13T18:34:48;22.00;99.90
18189;DHT22;9219;50.396;8.546;2023-07-13T18:39:58;22.10;99.90
18189;DHT22;9219;50.396;8.546;2023-07-13T18:42:26;21.90;99.90
18189;DHT22;9219;50.396;8.546;2023-07-13T18:44:53;22.10;99.90
18189;DHT22;9219;50.396;8.546;2023-07-13T18:47:23;22.20;99.90
18189;DHT22;9219;50.396;8.546;2023-07-13T18:49:51;22.30;99.90
18189;DHT22;9219;50.396;8.546;2023-07-13T18:52:23;22.70;99.90
18189;DHT22;9219;50.396;8.546;2023-07-13T18:54:52;22.90;99.90
18189;DHT22;9219;50.396;8.546;2023-07-13T19:00:00;22.90;99.90
18189;DHT22;9219;50.396;8.546;2023-07-13T19:02:30;22.50;99.90
18189;DHT22;9219;50.396;8.546;2023-07-13T19:04:59;22.40;99.90
18189;DHT22;9219;50.396;8.546;2023-07-13T19:07:28;22.20;99.90
18189;DHT22;9219;50.396;8.546;2023-07-13T19:09:56;22.10;99.90
18189;DHT22;9219;50.396;8.546;2023-07-13T19:12:30;22.20;99.90
18189;DHT22;9219;50.396;8.546;2023-07-13T19:15:00;22.20;99.90
18189;DHT22;9219;50.396;8.546;2023-07-13T19:17:29;22.20;99.90
18189;DHT22;9219;50.396;8.546;2023-07-13T19:25:07;22.30;99.90
18189;DHT22;9219;50.396;8.546;2023-07-13T19:27:35;22.40;99.90
18189;DHT22;9219;50.396;8.546;2023-07-13T19:30:04;22.50;99.90
18189;DHT22;9219;50.396;8.546;2023-07-13T19:32:32;22.40;99.90
18189;DHT22;9219;50.396;8.546;2023-07-13T19:35:00;22.40;99.90
18189;DHT22;9219;50.396;8.546;2023-07-13T19:37:30;22.50;99.90
18189;DHT22;9219;50.396;8.546;2023-07-13T19:39:58;22.60;99.90
18189;DHT22;9219;50.396;8.546;2023-07-13T19:42:27;22.70;99.90
18189;DHT22;9219;50.396;8.546;2023-07-13T19:50:01;22.60;99.90
18189;DHT22;9219;50.396;8.546;2023-07-13T19:52:31;22.40;99.90
18189;DHT22;9219;50.396;8.546;2023-07-13T19:54:59;22.30;99.90
18189;DHT22;9219;50.396;8.546;2023-07-13T19:57:28;22.30;99.90
18189;DHT22;9219;50.396;8.546;2023-07-13T19:59:57;22.30;99.90
18189;DHT22;9219;50.396;8.546;2023-07-13T20:02:27;22.40;99.90
18189;DHT22;9219;50.396;8.546;2023-07-13T20:04:55;22.40;99.90
18189;DHT22;9219;50.396;8.546;2023-07-13T20:07:25;22.50;99.90
18189;DHT22;9219;50.396;8.546;2023-07-13T20:14:59;22.50;99.90